Spirit — WDC2731 — position and weather

sailwx.info

Track history (hours):
 
Tides and Currents Weather Stations Pressure Air Temp Water Temp Dewpoint Dewpoint Depression Visibility Wind Speed Wind Dir Waves Ship Positions

Spirit

Owner: Kirby Inland Marine, LP, Houston, TX. More information available from US FCC via Universal Licensing System and Coast Guard Vessel Documentation Center.

Last reported at 2018-Feb-20 08:22 UTC. Time now 2018-Feb-23 03:12 UTC.
Position N 29°43' W 095°03'.

Length 85 m; draft 2.6 m.

Type: . MMSI: 366996910.

Date/timePositionNaut miles runAvg speedWind from/ knotsBaromVisibWave heightAir tempDewpointWater temp
2018-Feb-20 08:22N 29°43' W 095°03'2220.3
2018-Feb-20 07:18N 29°23' W 094°53'8 2.4
2018-Feb-20 03:52N 29°31' W 094°53'2 6.4
2018-Feb-20 03:31N 29°33' W 094°55'3 6.3
2018-Feb-20 03:01N 29°36' W 094°57'2 4.7
2018-Feb-20 02:30N 29°37' W 094°59'2 4.3
2018-Feb-20 02:01N 29°37' W 095°01'0 0.4
2018-Feb-20 01:31N 29°36' W 095°01'0 0.0
2018-Feb-20 00:58N 29°36' W 095°01'0 0.0
2018-Feb-20 00:30N 29°36' W 095°01'0 0.0
2018-Feb-20 00:00N 29°36' W 095°01'0 0.0
2018-Feb-19 23:31N 29°36' W 095°01'0 0.0
2018-Feb-19 23:00N 29°36' W 095°01'0 0.0
2018-Feb-19 22:30N 29°36' W 095°01'0 0.0
2018-Feb-19 22:01N 29°36' W 095°01'0 0.0
2018-Feb-19 21:25N 29°36' W 095°01'0 0.0
2018-Feb-19 21:01N 29°36' W 095°01'0 0.0
2018-Feb-19 20:31N 29°36' W 095°01'0 0.0
2018-Feb-19 20:00N 29°36' W 095°01'0 0.0
2018-Feb-19 19:30N 29°36' W 095°01'0 0.0
2018-Feb-19 18:52N 29°36' W 095°01'0 0.0
2018-Feb-19 18:30N 29°36' W 095°01'0 0.0
2018-Feb-19 18:00N 29°36' W 095°01'0 0.0
2018-Feb-19 17:30N 29°36' W 095°01'0 0.0
2018-Feb-19 17:01N 29°36' W 095°01'0 0.0
2018-Feb-19 16:31N 29°36' W 095°01'0 0.0
2018-Feb-19 16:01N 29°36' W 095°01'0 0.0
2018-Feb-19 15:30N 29°36' W 095°01'0 0.0
2018-Feb-19 15:00N 29°36' W 095°01'0 0.0
2018-Feb-19 14:30N 29°36' W 095°01'0 0.0
2018-Feb-19 14:01N 29°36' W 095°01'0 0.0
2018-Feb-19 13:31N 29°36' W 095°01'0 0.0
2018-Feb-19 13:01N 29°36' W 095°01'0 0.0
2018-Feb-19 12:31N 29°36' W 095°01'0 0.0
2018-Feb-19 12:01N 29°36' W 095°01'0 0.0
2018-Feb-19 11:31N 29°36' W 095°01'0 0.0
2018-Feb-19 11:00N 29°36' W 095°01'0 0.0
2018-Feb-19 10:31N 29°36' W 095°01'0 0.0
2018-Feb-19 10:01N 29°36' W 095°01'0 0.0
2018-Feb-19 09:30N 29°36' W 095°01'0 0.0
2018-Feb-19 09:01N 29°36' W 095°01'2 4.0
2018-Feb-19 08:29N 29°37' W 094°59'2 4.9
2018-Feb-19 08:00N 29°39' W 094°58'3 6.9
2018-Feb-19 07:30N 29°42' W 095°00'3 6.3
2018-Feb-19 07:00N 29°44' W 095°03'3 5.8
2018-Feb-19 06:30N 29°46' W 095°06'0 0.1
2018-Feb-19 06:01N 29°46' W 095°06'0 0.0
2018-Feb-19 05:30N 29°46' W 095°06'0 0.0
2018-Feb-19 04:53N 29°46' W 095°06'3 1.0
2018-Feb-19 02:07N 29°44' W 095°03'1 5.5
2018-Feb-19 01:56N 29°44' W 095°02'3 5.9
2018-Feb-19 01:26N 29°46' W 095°05'2 1.3
2018-Feb-18 23:34N 29°44' W 095°03'1 5.5
2018-Feb-18 23:19N 29°44' W 095°01'1 4.5
2018-Feb-18 22:59N 29°42' W 095°01'2 3.3
2018-Feb-18 22:31N 29°43' W 095°03'0 0.0
2018-Feb-18 18:19N 29°43' W 095°03'0 0.0
2018-Feb-18 16:30N 29°43' W 095°03'2 2.3
2018-Feb-18 15:49N 29°42' W 095°01'1 4.4
2018-Feb-18 15:30N 29°44' W 095°01'3 5.8
2018-Feb-18 14:57N 29°46' W 095°04'1 0.4
2018-Feb-18 12:33N 29°46' W 095°05'2 5.0
2018-Feb-18 12:03N 29°44' W 095°07'0 5.4
2018-Feb-18 11:59N 29°44' W 095°08'0 0.1
2018-Feb-18 08:57N 29°44' W 095°08'3 2.1
2018-Feb-18 07:43N 29°46' W 095°06'0 0.1
2018-Feb-18 07:17N 29°46' W 095°06'2 3.3
2018-Feb-18 06:46N 29°45' W 095°04'1 3.9
2018-Feb-18 06:30N 29°44' W 095°03'2 3.7
2018-Feb-18 05:54N 29°43' W 095°01'1 2.7
2018-Feb-18 05:30N 29°42' W 095°02'1 2.7
2018-Feb-18 05:00N 29°43' W 095°03'0 0.0
2018-Feb-18 04:30N 29°43' W 095°03'0 0.0
2018-Feb-17 20:44N 29°43' W 095°03'0 0.0
2018-Feb-17 14:28N 29°43' W 095°03'1 1.4
2018-Feb-17 13:59N 29°43' W 095°03'2 2.9
2018-Feb-17 13:28N 29°44' W 095°02'3 6.3
2018-Feb-17 12:59N 29°45' W 095°04'0 0.0
2018-Feb-17 09:36N 29°46' W 095°04'1 4.3
2018-Feb-17 09:17N 29°44' W 095°03'2 4.7
2018-Feb-17 08:56N 29°44' W 095°02'2 3.8
2018-Feb-17 08:31N 29°42' W 095°01'2 3.2
2018-Feb-17 08:00N 29°43' W 095°03'0 0.0
2018-Feb-17 06:39N 29°43' W 095°03'0 0.0
2018-Feb-17 06:23N 29°43' W 095°03'0 0.0
2018-Feb-17 05:56N 29°43' W 095°03'0 0.0
2018-Feb-16 21:38N 29°43' W 095°03'0 0.0
2018-Feb-16 20:06N 29°43' W 095°03'0 0.0
2018-Feb-16 18:57N 29°43' W 095°03'0 0.0
2018-Feb-16 18:29N 29°43' W 095°03'0 0.0
2018-Feb-16 18:00N 29°43' W 095°03'0 0.4
2018-Feb-16 17:30N 29°43' W 095°03'2 3.4
2018-Feb-16 17:00N 29°42' W 095°01'2 4.5
2018-Feb-16 16:30N 29°44' W 095°03'3 5.5
2018-Feb-16 16:01N 29°46' W 095°05'1 1.2
2018-Feb-16 15:18N 29°47' W 095°04'0 0.3
2018-Feb-16 14:02N 29°47' W 095°04'0 1.9
2018-Feb-16 13:54N 29°47' W 095°04'4 1.2
2018-Feb-16 10:56N 29°44' W 095°07'2 0.7
2018-Feb-16 08:17N 29°46' W 095°05'1 1.8
2018-Feb-16 07:52N 29°46' W 095°05'0 0.0
2018-Feb-16 07:29N 29°46' W 095°05'0 0.0
2018-Feb-16 06:57N 29°46' W 095°05'0 0.0
2018-Feb-16 06:30N 29°46' W 095°05'1 1.3
2018-Feb-16 05:41N 29°47' W 095°04'0 0.0
2018-Feb-16 05:27N 29°47' W 095°04'0 0.0
2018-Feb-16 04:55N 29°47' W 095°04'0 0.4
2018-Feb-16 04:30N 29°47' W 095°04'0 0.4
2018-Feb-16 04:00N 29°47' W 095°04'2 2.3
2018-Feb-16 03:04N 29°45' W 095°06'0 0.0
2018-Feb-16 02:50N 29°45' W 095°06'1 2.1
2018-Feb-16 02:30N 29°46' W 095°07'1 0.9
2018-Feb-16 01:46N 29°45' W 095°06'2 0.3
2018-Feb-15 19:36N 29°47' W 095°05'3 2.5
2018-Feb-15 18:27N 29°44' W 095°06'4 0.4
2018-Feb-15 09:39N 29°47' W 095°04'0 0.0
2018-Feb-15 09:27N 29°47' W 095°04'0 0.0
2018-Feb-15 08:17N 29°47' W 095°04'0 0.0
2018-Feb-15 08:00N 29°47' W 095°04'0 0.0
2018-Feb-15 07:15N 29°47' W 095°04'0 0.0
2018-Feb-15 06:54N 29°47' W 095°04'0 0.0
2018-Feb-15 06:30N 29°47' W 095°04'0 0.0
2018-Feb-15 06:00N 29°47' W 095°04'0 0.0
2018-Feb-15 05:29N 29°47' W 095°04'0 0.3
2018-Feb-15 04:58N 29°47' W 095°04'0 0.0
2018-Feb-15 04:23N 29°47' W 095°04'0 0.2
2018-Feb-15 03:57N 29°47' W 095°04'0 0.0
2018-Feb-15 03:28N 29°47' W 095°04'0 0.0
2018-Feb-15 02:57N 29°47' W 095°04'0 0.0
2018-Feb-15 02:21N 29°47' W 095°04'2 3.7
2018-Feb-15 01:49N 29°46' W 095°05'2 6.1
2018-Feb-15 01:25N 29°44' W 095°08'2 4.8
2018-Feb-15 00:55N 29°45' W 095°10'4 1.1
2018-Feb-14 21:07N 29°46' W 095°05'1 4.2
2018-Feb-14 20:47N 29°45' W 095°04'1 5.0
2018-Feb-14 20:30N 29°44' W 095°03'1 3.0
2018-Feb-14 20:00N 29°44' W 095°01'1 1.1
2018-Feb-14 19:24N 29°44' W 095°02'2 5.9
2018-Feb-14 18:59N 29°45' W 095°04'3 5.0
2018-Feb-14 18:29N 29°44' W 095°07'1 0.3
2018-Feb-14 15:47N 29°44' W 095°08'2 1.7
2018-Feb-14 14:41N 29°46' W 095°06'1 1.0
2018-Feb-14 14:09N 29°46' W 095°07'  
2018-Feb-12 04:22N 29°46' W 095°05'2 0.8
2018-Feb-12 02:29N 29°47' W 095°04'0 0.0
2018-Feb-12 01:10N 29°47' W 095°04'0 1.5
2018-Feb-12 01:00N 29°47' W 095°05'3 1.9
2018-Feb-11 23:33N 29°44' W 095°03'1 5.4
2018-Feb-11 23:28N 29°44' W 095°03'0 0.8
2018-Feb-11 23:00N 29°44' W 095°03'2 1.3
2018-Feb-11 21:07N 29°45' W 095°06'0 0.8
2018-Feb-11 20:59N 29°45' W 095°06'1 0.6
2018-Feb-11 18:39N 29°46' W 095°05'  
Track history (hours):
 
Tides and Currents Weather Stations Pressure Air Temp Water Temp Dewpoint Dewpoint Depression Visibility Wind Speed Wind Dir Waves Ship Positions

Spirit

Owner: Kirby Inland Marine, LP, Houston, TX. More information available from US FCC via Universal Licensing System and Coast Guard Vessel Documentation Center.

Last reported at 2018-Feb-20 08:22 UTC. Time now 2018-Feb-23 03:12 UTC.
Position N 29°43' W 095°03'.

Length 85 m; draft 2.6 m.

Type: . MMSI: 366996910.

Date/timePositionNaut miles runAvg speedWind from/ knotsBaromVisibWave heightAir tempDewpointWater temp
2018-Feb-20 08:22N 29°43' W 095°03'2220.3
2018-Feb-20 07:18N 29°23' W 094°53'8 2.4
2018-Feb-20 03:52N 29°31' W 094°53'2 6.4
2018-Feb-20 03:31N 29°33' W 094°55'3 6.3
2018-Feb-20 03:01N 29°36' W 094°57'2 4.7
2018-Feb-20 02:30N 29°37' W 094°59'2 4.3
2018-Feb-20 02:01N 29°37' W 095°01'0 0.4
2018-Feb-20 01:31N 29°36' W 095°01'0 0.0
2018-Feb-20 00:58N 29°36' W 095°01'0 0.0
2018-Feb-20 00:30N 29°36' W 095°01'0 0.0
2018-Feb-20 00:00N 29°36' W 095°01'0 0.0
2018-Feb-19 23:31N 29°36' W 095°01'0 0.0
2018-Feb-19 23:00N 29°36' W 095°01'0 0.0
2018-Feb-19 22:30N 29°36' W 095°01'0 0.0
2018-Feb-19 22:01N 29°36' W 095°01'0 0.0
2018-Feb-19 21:25N 29°36' W 095°01'0 0.0
2018-Feb-19 21:01N 29°36' W 095°01'0 0.0
2018-Feb-19 20:31N 29°36' W 095°01'0 0.0
2018-Feb-19 20:00N 29°36' W 095°01'0 0.0
2018-Feb-19 19:30N 29°36' W 095°01'0 0.0
2018-Feb-19 18:52N 29°36' W 095°01'0 0.0
2018-Feb-19 18:30N 29°36' W 095°01'0 0.0
2018-Feb-19 18:00N 29°36' W 095°01'0 0.0
2018-Feb-19 17:30N 29°36' W 095°01'0 0.0
2018-Feb-19 17:01N 29°36' W 095°01'0 0.0
2018-Feb-19 16:31N 29°36' W 095°01'0 0.0
2018-Feb-19 16:01N 29°36' W 095°01'0 0.0
2018-Feb-19 15:30N 29°36' W 095°01'0 0.0
2018-Feb-19 15:00N 29°36' W 095°01'0 0.0
2018-Feb-19 14:30N 29°36' W 095°01'0 0.0
2018-Feb-19 14:01N 29°36' W 095°01'0 0.0
2018-Feb-19 13:31N 29°36' W 095°01'0 0.0
2018-Feb-19 13:01N 29°36' W 095°01'0 0.0
2018-Feb-19 12:31N 29°36' W 095°01'0 0.0
2018-Feb-19 12:01N 29°36' W 095°01'0 0.0
2018-Feb-19 11:31N 29°36' W 095°01'0 0.0
2018-Feb-19 11:00N 29°36' W 095°01'0 0.0
2018-Feb-19 10:31N 29°36' W 095°01'0 0.0
2018-Feb-19 10:01N 29°36' W 095°01'0 0.0
2018-Feb-19 09:30N 29°36' W 095°01'0 0.0
2018-Feb-19 09:01N 29°36' W 095°01'2 4.0
2018-Feb-19 08:29N 29°37' W 094°59'2 4.9
2018-Feb-19 08:00N 29°39' W 094°58'3 6.9
2018-Feb-19 07:30N 29°42' W 095°00'3 6.3
2018-Feb-19 07:00N 29°44' W 095°03'3 5.8
2018-Feb-19 06:30N 29°46' W 095°06'0 0.1
2018-Feb-19 06:01N 29°46' W 095°06'0 0.0
2018-Feb-19 05:30N 29°46' W 095°06'0 0.0
2018-Feb-19 04:53N 29°46' W 095°06'3 1.0
2018-Feb-19 02:07N 29°44' W 095°03'1 5.5
2018-Feb-19 01:56N 29°44' W 095°02'3 5.9
2018-Feb-19 01:26N 29°46' W 095°05'2 1.3
2018-Feb-18 23:34N 29°44' W 095°03'1 5.5
2018-Feb-18 23:19N 29°44' W 095°01'1 4.5
2018-Feb-18 22:59N 29°42' W 095°01'2 3.3
2018-Feb-18 22:31N 29°43' W 095°03'0 0.0
2018-Feb-18 18:19N 29°43' W 095°03'0 0.0
2018-Feb-18 16:30N 29°43' W 095°03'2 2.3
2018-Feb-18 15:49N 29°42' W 095°01'1 4.4
2018-Feb-18 15:30N 29°44' W 095°01'3 5.8
2018-Feb-18 14:57N 29°46' W 095°04'1 0.4
2018-Feb-18 12:33N 29°46' W 095°05'2 5.0
2018-Feb-18 12:03N 29°44' W 095°07'0 5.4
2018-Feb-18 11:59N 29°44' W 095°08'0 0.1
2018-Feb-18 08:57N 29°44' W 095°08'3 2.1
2018-Feb-18 07:43N 29°46' W 095°06'0 0.1
2018-Feb-18 07:17N 29°46' W 095°06'2 3.3
2018-Feb-18 06:46N 29°45' W 095°04'1 3.9
2018-Feb-18 06:30N 29°44' W 095°03'2 3.7
2018-Feb-18 05:54N 29°43' W 095°01'1 2.7
2018-Feb-18 05:30N 29°42' W 095°02'1 2.7
2018-Feb-18 05:00N 29°43' W 095°03'0 0.0
2018-Feb-18 04:30N 29°43' W 095°03'0 0.0
2018-Feb-17 20:44N 29°43' W 095°03'0 0.0
2018-Feb-17 14:28N 29°43' W 095°03'1 1.4
2018-Feb-17 13:59N 29°43' W 095°03'2 2.9
2018-Feb-17 13:28N 29°44' W 095°02'3 6.3
2018-Feb-17 12:59N 29°45' W 095°04'0 0.0
2018-Feb-17 09:36N 29°46' W 095°04'1 4.3
2018-Feb-17 09:17N 29°44' W 095°03'2 4.7
2018-Feb-17 08:56N 29°44' W 095°02'2 3.8
2018-Feb-17 08:31N 29°42' W 095°01'2 3.2
2018-Feb-17 08:00N 29°43' W 095°03'0 0.0
2018-Feb-17 06:39N 29°43' W 095°03'0 0.0
2018-Feb-17 06:23N 29°43' W 095°03'0 0.0
2018-Feb-17 05:56N 29°43' W 095°03'0 0.0
2018-Feb-16 21:38N 29°43' W 095°03'0 0.0
2018-Feb-16 20:06N 29°43' W 095°03'0 0.0
2018-Feb-16 18:57N 29°43' W 095°03'0 0.0
2018-Feb-16 18:29N 29°43' W 095°03'0 0.0
2018-Feb-16 18:00N 29°43' W 095°03'0 0.4
2018-Feb-16 17:30N 29°43' W 095°03'2 3.4
2018-Feb-16 17:00N 29°42' W 095°01'2 4.5
2018-Feb-16 16:30N 29°44' W 095°03'3 5.5
2018-Feb-16 16:01N 29°46' W 095°05'1 1.2
2018-Feb-16 15:18N 29°47' W 095°04'0 0.3
2018-Feb-16 14:02N 29°47' W 095°04'0 1.9
2018-Feb-16 13:54N 29°47' W 095°04'4 1.2
2018-Feb-16 10:56N 29°44' W 095°07'2 0.7
2018-Feb-16 08:17N 29°46' W 095°05'1 1.8
2018-Feb-16 07:52N 29°46' W 095°05'0 0.0
2018-Feb-16 07:29N 29°46' W 095°05'0 0.0
2018-Feb-16 06:57N 29°46' W 095°05'0 0.0
2018-Feb-16 06:30N 29°46' W 095°05'1 1.3
2018-Feb-16 05:41N 29°47' W 095°04'0 0.0
2018-Feb-16 05:27N 29°47' W 095°04'0 0.0
2018-Feb-16 04:55N 29°47' W 095°04'0 0.4
2018-Feb-16 04:30N 29°47' W 095°04'0 0.4
2018-Feb-16 04:00N 29°47' W 095°04'2 2.3
2018-Feb-16 03:04N 29°45' W 095°06'0 0.0
2018-Feb-16 02:50N 29°45' W 095°06'1 2.1
2018-Feb-16 02:30N 29°46' W 095°07'1 0.9
2018-Feb-16 01:46N 29°45' W 095°06'2 0.3
2018-Feb-15 19:36N 29°47' W 095°05'3 2.5
2018-Feb-15 18:27N 29°44' W 095°06'4 0.4
2018-Feb-15 09:39N 29°47' W 095°04'0 0.0
2018-Feb-15 09:27N 29°47' W 095°04'0 0.0
2018-Feb-15 08:17N 29°47' W 095°04'0 0.0
2018-Feb-15 08:00N 29°47' W 095°04'0 0.0
2018-Feb-15 07:15N 29°47' W 095°04'0 0.0
2018-Feb-15 06:54N 29°47' W 095°04'0 0.0
2018-Feb-15 06:30N 29°47' W 095°04'0 0.0
2018-Feb-15 06:00N 29°47' W 095°04'0 0.0
2018-Feb-15 05:29N 29°47' W 095°04'0 0.3
2018-Feb-15 04:58N 29°47' W 095°04'0 0.0
2018-Feb-15 04:23N 29°47' W 095°04'0 0.2
2018-Feb-15 03:57N 29°47' W 095°04'0 0.0
2018-Feb-15 03:28N 29°47' W 095°04'0 0.0
2018-Feb-15 02:57N 29°47' W 095°04'0 0.0
2018-Feb-15 02:21N 29°47' W 095°04'2 3.7
2018-Feb-15 01:49N 29°46' W 095°05'2 6.1
2018-Feb-15 01:25N 29°44' W 095°08'2 4.8
2018-Feb-15 00:55N 29°45' W 095°10'4 1.1
2018-Feb-14 21:07N 29°46' W 095°05'1 4.2
2018-Feb-14 20:47N 29°45' W 095°04'1 5.0
2018-Feb-14 20:30N 29°44' W 095°03'1 3.0
2018-Feb-14 20:00N 29°44' W 095°01'1 1.1
2018-Feb-14 19:24N 29°44' W 095°02'2 5.9
2018-Feb-14 18:59N 29°45' W 095°04'3 5.0
2018-Feb-14 18:29N 29°44' W 095°07'1 0.3
2018-Feb-14 15:47N 29°44' W 095°08'2 1.7
2018-Feb-14 14:41N 29°46' W 095°06'1 1.0
2018-Feb-14 14:09N 29°46' W 095°07'  
2018-Feb-12 04:22N 29°46' W 095°05'2 0.8
2018-Feb-12 02:29N 29°47' W 095°04'0 0.0
2018-Feb-12 01:10N 29°47' W 095°04'0 1.5
2018-Feb-12 01:00N 29°47' W 095°05'3 1.9
2018-Feb-11 23:33N 29°44' W 095°03'1 5.4
2018-Feb-11 23:28N 29°44' W 095°03'0 0.8
2018-Feb-11 23:00N 29°44' W 095°03'2 1.3
2018-Feb-11 21:07N 29°45' W 095°06'0 0.8
2018-Feb-11 20:59N 29°45' W 095°06'1 0.6
2018-Feb-11 18:39N 29°46' W 095°05'  

Dump ship's entire track history